Time;durP1;ratioP1;P1;durP2;ratioP2;P2;SDS_P1;SDS_P2;PMS_P1;PMS_P2;Temp;Humidity;BMP_temperature;BMP_pressure;BME280_temperature;BME280_humidity;BME280_pressure;Samples;Min_cycle;Max_cycle;Signal;HPM_P1;HPM_P2
2023/12/06 00:03:44;;;;;;;;;;;;;;;19.72;32.77;95030.56;10489272;28;2950;-51
2023/12/06 00:08:45;;;;;;;;;;;;;;;19.68;32.74;95028.81;10495282;28;2877;-45
2023/12/06 00:13:45;;;;;;;;;;;;;;;19.70;32.92;95018.81;10501445;28;2789;-46
2023/12/06 00:18:45;;;;;;;;;;;;;;;19.66;34.13;95026.44;10493536;28;2897;-47
2023/12/06 00:23:46;;;;;;;;;;;;;;;19.64;33.97;95019.94;10492561;28;2833;-46
2023/12/06 00:28:48;;;;;;;;;;;;;;;19.63;34.08;95018.34;10489808;28;3075;-49
2023/12/06 00:33:49;;;;;;;;;;;;;;;19.62;34.23;95017.56;10492555;28;2846;-49
2023/12/06 00:38:49;;;;;;;;;;;;;;;19.62;33.96;95022.06;10491326;28;2816;-48
2023/12/06 00:43:53;;;;;;;;;;;;;;;19.58;33.98;95021.06;10493092;28;4629;-48
2023/12/06 00:48:53;;;;;;;;;;;;;;;19.59;33.98;95017.38;10494694;28;2859;-47
2023/12/06 00:53:53;;;;;;;;;;;;;;;19.60;33.55;95024.19;10494790;28;2825;-47
2023/12/06 00:58:54;;;;;;;;;;;;;;;19.59;34.00;95027.88;10494309;28;2860;-46
2023/12/06 01:03:54;;;;;;;;;;;;;;;19.59;33.61;95027.88;10490523;28;2788;-49
2023/12/06 01:08:54;;;;;;;;;;;;;;;19.60;33.77;95026.84;10496433;28;2932;-46
2023/12/06 01:13:54;;;;;;;;;;;;;;;19.56;33.86;95028.47;10495188;28;2840;-46
2023/12/06 01:18:55;;;;;;;;;;;;;;;19.59;33.56;95027.88;10496866;28;2829;-47
2023/12/06 01:23:57;;;;;;;;;;;;;;;19.59;33.61;95023.41;10501764;28;2790;-45
2023/12/06 01:28:58;;;;;;;;;;;;;;;19.62;33.54;95035.22;10499177;28;2889;-50
2023/12/06 01:33:58;;;;;;;;;;;;;;;19.61;33.22;95034.44;10502370;28;2864;-48
2023/12/06 01:38:58;;;;;;;;;;;;;;;19.61;33.42;95036.25;10499671;28;2886;-47
2023/12/06 01:43:59;;;;;;;;;;;;;;;19.63;33.50;95040.19;10501617;28;4596;-48
2023/12/06 01:49:00;;;;;;;;;;;;;;;19.64;33.30;95033.09;10501034;28;2893;-45
2023/12/06 01:54:00;;;;;;;;;;;;;;;19.64;33.21;95043.59;10502053;28;2927;-49
2023/12/06 01:59:00;;;;;;;;;;;;;;;19.63;33.27;95044.66;10497829;27;2809;-46
2023/12/06 02:04:01;;;;;;;;;;;;;;;19.64;33.33;95036.47;10499403;28;3346;-48
2023/12/06 02:09:03;;;;;;;;;;;;;;;19.63;33.05;95049.91;10493283;28;2860;-46
2023/12/06 02:14:03;;;;;;;;;;;;;;;19.64;32.95;95047.00;10511297;28;2831;-47
2023/12/06 02:19:04;;;;;;;;;;;;;;;19.62;33.09;95051.75;10498126;28;2865;-51
2023/12/06 02:24:04;;;;;;;;;;;;;;;19.63;33.17;95049.91;10511511;28;2855;-47
2023/12/06 02:29:04;;;;;;;;;;;;;;;19.63;32.88;95055.97;10479537;28;2799;-46
2023/12/06 02:34:06;;;;;;;;;;;;;;;19.62;33.10;95045.72;10497970;28;2811;-47
2023/12/06 02:39:06;;;;;;;;;;;;;;;19.62;33.09;95046.50;10494056;28;2873;-47
2023/12/06 02:44:07;;;;;;;;;;;;;;;19.63;32.81;95052.53;10497964;28;4573;-48
2023/12/06 02:49:07;;;;;;;;;;;;;;;19.61;32.97;95057.31;10494352;28;2828;-47
2023/12/06 02:54:07;;;;;;;;;;;;;;;19.63;32.88;95050.69;10495410;28;2856;-48
2023/12/06 02:59:08;;;;;;;;;;;;;;;19.64;32.85;95048.84;10498321;28;2860;-48
2023/12/06 03:04:08;;;;;;;;;;;;;;;19.62;32.86;95049.13;10491940;28;2862;-47
2023/12/06 03:09:08;;;;;;;;;;;;;;;19.62;32.64;95051.75;10493527;28;2869;-49
2023/12/06 03:14:08;;;;;;;;;;;;;;;19.62;32.63;95051.00;10486486;28;2897;-46
2023/12/06 03:19:09;;;;;;;;;;;;;;;19.62;32.58;95048.34;10502348;28;2821;-46
2023/12/06 03:24:09;;;;;;;;;;;;;;;19.63;32.50;95050.69;10491226;28;3477;-48
2023/12/06 03:29:09;;;;;;;;;;;;;;;19.63;32.57;95057.81;10502073;28;2881;-47
2023/12/06 03:34:10;;;;;;;;;;;;;;;19.63;32.76;95052.53;10493099;28;2938;-47
2023/12/06 03:39:10;;;;;;;;;;;;;;;19.64;32.48;95054.88;10487045;28;2824;-47
2023/12/06 03:44:10;;;;;;;;;;;;;;;19.65;32.41;95059.09;10491417;28;4621;-49
2023/12/06 03:49:10;;;;;;;;;;;;;;;19.65;32.52;95053.03;10496899;28;2864;-47
2023/12/06 03:54:11;;;;;;;;;;;;;;;19.66;32.69;95065.13;10494806;28;2899;-47
2023/12/06 03:59:12;;;;;;;;;;;;;;;19.67;32.27;95069.31;10507481;28;2797;-46
2023/12/06 04:04:13;;;;;;;;;;;;;;;19.67;32.48;95066.69;10497168;28;2826;-47
2023/12/06 04:09:13;;;;;;;;;;;;;;;19.67;32.59;95062.22;10498647;28;2790;-48
2023/12/06 04:14:14;;;;;;;;;;;;;;;19.67;32.37;95066.69;10496318;28;2887;-50
2023/12/06 04:19:14;;;;;;;;;;;;;;;19.69;32.57;95069.81;10487113;28;2910;-47
2023/12/06 04:24:14;;;;;;;;;;;;;;;19.69;32.36;95073.22;10500052;28;3442;-47
2023/12/06 04:29:17;;;;;;;;;;;;;;;19.68;32.19;95074.28;10495881;28;2920;-51
2023/12/06 04:34:18;;;;;;;;;;;;;;;19.68;32.33;95073.53;10496521;28;2867;-51
2023/12/06 04:39:18;;;;;;;;;;;;;;;19.69;32.22;95075.06;10491030;28;2815;-50
2023/12/06 04:44:18;;;;;;;;;;;;;;;19.69;32.13;95080.31;10488491;28;4673;-46
2023/12/06 04:49:18;;;;;;;;;;;;;;;19.68;32.16;95084.03;10493685;27;2833;-48
2023/12/06 04:54:19;;;;;;;;;;;;;;;19.68;32.14;95087.44;10500326;28;3064;-51
2023/12/06 04:59:19;;;;;;;;;;;;;;;19.69;32.18;95088.22;10504113;28;2849;-51
2023/12/06 05:04:22;;;;;;;;;;;;;;;19.70;31.89;95097.69;10508612;28;3119;-50
2023/12/06 05:09:22;;;;;;;;;;;;;;;19.67;32.33;95092.97;10498914;28;2911;-46
2023/12/06 05:14:22;;;;;;;;;;;;;;;19.69;31.82;95099.53;10497019;28;2819;-46
2023/12/06 05:19:23;;;;;;;;;;;;;;;19.70;31.99;95098.44;10508916;28;2803;-46
2023/12/06 05:24:23;;;;;;;;;;;;;;;19.71;32.17;95093.97;10494586;28;3131;-47
2023/12/06 05:29:24;;;;;;;;;;;;;;;19.71;31.88;95099.22;10497123;28;2809;-49
2023/12/06 05:34:24;;;;;;;;;;;;;;;19.70;31.97;95092.41;10501723;28;2904;-48
2023/12/06 05:39:25;;;;;;;;;;;;;;;19.71;31.89;95093.97;10493125;28;2845;-48
2023/12/06 05:44:25;;;;;;;;;;;;;;;19.71;32.10;95093.97;10503200;28;2825;-47
2023/12/06 05:49:26;;;;;;;;;;;;;;;19.70;31.88;95092.41;10509717;28;3132;-45
2023/12/06 05:54:26;;;;;;;;;;;;;;;19.68;32.25;95097.19;10498739;28;3236;-45
2023/12/06 05:59:27;;;;;;;;;;;;;;;19.67;32.05;95093.75;10507584;28;2810;-44
2023/12/06 06:04:27;;;;;;;;;;;;;;;19.68;32.41;95103.19;10506295;28;2866;-47
2023/12/06 06:09:28;;;;;;;;;;;;;;;19.71;32.98;95099.22;10502820;28;2955;-50
2023/12/06 06:14:28;;;;;;;;;;;;;;;19.73;32.92;95097.09;10503783;28;2871;-49
2023/12/06 06:19:28;;;;;;;;;;;;;;;19.75;33.18;95100.22;10493277;28;2936;-52
2023/12/06 06:24:28;;;;;;;;;;;;;;;19.76;33.24;95109.69;10476753;28;3227;-47
2023/12/06 06:29:29;;;;;;;;;;;;;;;19.75;33.01;95102.84;10494263;28;2841;-47
2023/12/06 06:34:29;;;;;;;;;;;;;;;19.74;33.40;95115.22;10492293;28;2871;-48
2023/12/06 06:39:29;;;;;;;;;;;;;;;19.75;33.09;95114.16;10487207;28;2872;-45
2023/12/06 06:44:30;;;;;;;;;;;;;;;19.73;33.06;95118.13;10491545;28;4769;-48
2023/12/06 06:49:30;;;;;;;;;;;;;;;19.72;33.24;95121.84;10498208;28;2956;-47
2023/12/06 06:54:30;;;;;;;;;;;;;;;19.71;33.01;95121.06;10490545;28;2864;-46
2023/12/06 06:59:31;;;;;;;;;;;;;;;19.73;32.60;95120.75;10488359;28;3521;-48
2023/12/06 07:04:31;;;;;;;;;;;;;;;19.71;32.56;95126.31;10488919;28;3141;-46
2023/12/06 07:09:32;;;;;;;;;;;;;;;19.70;32.48;95131.88;10489664;28;2983;-48
2023/12/06 07:14:32;;;;;;;;;;;;;;;19.66;33.08;95134.25;10498467;28;2800;-48
2023/12/06 07:19:32;;;;;;;;;;;;;;;19.66;32.50;95133.50;10496909;28;2972;-47
2023/12/06 07:24:32;;;;;;;;;;;;;;;19.63;32.71;95136.66;10495146;28;2928;-47
2023/12/06 07:29:33;;;;;;;;;;;;;;;19.64;32.83;95140.88;10496827;28;2857;-46
2023/12/06 07:34:33;;;;;;;;;;;;;;;19.64;32.85;95148.75;10495563;28;2885;-45
2023/12/06 07:39:33;;;;;;;;;;;;;;;19.67;32.58;95156.06;10497598;28;2894;-46
2023/12/06 07:44:34;;;;;;;;;;;;;;;19.68;32.85;95152.41;10499822;28;4978;-47
2023/12/06 07:49:34;;;;;;;;;;;;;;;19.68;32.71;95155.03;10498110;28;2966;-45
2023/12/06 07:54:34;;;;;;;;;;;;;;;19.69;32.95;95164.47;10494005;28;2915;-47
2023/12/06 07:59:34;;;;;;;;;;;;;;;19.67;33.00;95158.69;10500037;28;2850;-47
2023/12/06 08:04:35;;;;;;;;;;;;;;;19.67;32.94;95166.59;10497475;28;2999;-47
2023/12/06 08:09:35;;;;;;;;;;;;;;;19.68;32.76;95173.44;10496888;28;2933;-46
2023/12/06 08:14:39;;;;;;;;;;;;;;;19.67;32.88;95166.59;10494670;28;2808;-46
2023/12/06 08:19:39;;;;;;;;;;;;;;;19.65;32.88;95174.78;10492552;28;2833;-46
2023/12/06 08:24:40;;;;;;;;;;;;;;;19.68;32.54;95173.44;10492513;28;3179;-47
2023/12/06 08:29:40;;;;;;;;;;;;;;;19.68;32.48;95176.06;10496117;28;2892;-45
2023/12/06 08:34:40;;;;;;;;;;;;;;;19.66;32.59;95194.72;10509283;28;3081;-46
2023/12/06 08:39:41;;;;;;;;;;;;;;;19.66;32.85;95191.34;10496390;28;3117;-48
2023/12/06 08:44:41;;;;;;;;;;;;;;;19.66;32.34;95199.97;10499164;28;4624;-46
2023/12/06 08:49:41;;;;;;;;;;;;;;;19.67;32.51;95206.81;10509210;28;3238;-47
2023/12/06 08:54:41;;;;;;;;;;;;;;;19.68;32.42;95210.25;10530977;27;3257;-48
2023/12/06 08:59:42;;;;;;;;;;;;;;;19.67;32.26;95208.66;10497536;28;3111;-46
2023/12/06 09:04:42;;;;;;;;;;;;;;;19.67;32.37;95212.09;10496131;28;3101;-45
2023/12/06 09:09:44;;;;;;;;;;;;;;;19.67;32.64;95221.81;10494178;28;2990;-46
2023/12/06 09:14:45;;;;;;;;;;;;;;;19.67;32.27;95230.50;10497763;28;3192;-48
2023/12/06 09:19:45;;;;;;;;;;;;;;;19.65;32.54;95227.34;10503939;28;2904;-49
2023/12/06 09:24:45;;;;;;;;;;;;;;;19.66;32.48;95230.78;10498003;28;2868;-46
2023/12/06 09:29:45;;;;;;;;;;;;;;;19.68;32.22;95233.91;10495345;28;2899;-48
2023/12/06 09:34:46;;;;;;;;;;;;;;;19.67;32.50;95242.84;10498525;28;2861;-46
2023/12/06 09:39:46;;;;;;;;;;;;;;;19.65;32.21;95247.59;10493619;28;2861;-48
2023/12/06 09:44:46;;;;;;;;;;;;;;;19.65;32.72;95243.13;10502527;28;2904;-46
2023/12/06 09:49:47;;;;;;;;;;;;;;;19.67;32.38;95245.47;10499847;28;2767;-49
2023/12/06 09:54:48;;;;;;;;;;;;;;;19.66;32.24;95246.56;10499632;28;2894;-46
2023/12/06 09:59:48;;;;;;;;;;;;;;;19.66;32.09;95251.81;10498630;28;3103;-49
2023/12/06 10:04:49;;;;;;;;;;;;;;;19.66;32.17;95254.44;10493014;28;2855;-47
2023/12/06 10:09:50;;;;;;;;;;;;;;;19.68;32.38;95252.31;10506088;28;2814;-49
2023/12/06 10:14:56;;;;;;;;;;;;;;;19.68;31.96;95253.06;10499757;28;2845;-50
2023/12/06 10:19:56;;;;;;;;;;;;;;;19.67;32.37;95251.53;10496589;28;2939;-51
2023/12/06 10:24:57;;;;;;;;;;;;;;;19.67;32.20;95245.47;10494229;28;2849;-46
2023/12/06 10:29:57;;;;;;;;;;;;;;;19.68;32.25;95247.81;10498866;28;2877;-47
2023/12/06 10:35:01;;;;;;;;;;;;;;;19.68;32.19;95247.81;10496282;28;2857;-50
2023/12/06 10:40:09;;;;;;;;;;;;;;;19.69;31.76;95248.59;10492412;28;2838;-50
2023/12/06 10:45:09;;;;;;;;;;;;;;;19.68;32.19;95241.78;10493053;28;2932;-47
2023/12/06 10:50:09;;;;;;;;;;;;;;;19.68;32.22;95242.56;10493396;28;2936;-49
2023/12/06 10:55:10;;;;;;;;;;;;;;;19.69;31.94;95243.34;10492540;28;2811;-52
2023/12/06 11:00:10;;;;;;;;;;;;;;;19.68;32.29;95241.78;10493142;28;2951;-48
2023/12/06 11:05:11;;;;;;;;;;;;;;;19.69;32.21;95238.09;10497006;28;3198;-49
2023/12/06 11:10:20;;;;;;;;;;;;;;;19.68;32.01;95241.78;10503541;28;2892;-48
2023/12/06 11:15:33;;;;;;;;;;;;;;;19.67;32.09;95253.38;10508504;28;2981;-52
2023/12/06 11:20:33;;;;;;;;;;;;;;;19.69;32.00;95245.97;10501522;28;2863;-47
2023/12/06 11:25:33;;;;;;;;;;;;;;;19.69;31.81;95244.13;10494555;28;3115;-49
2023/12/06 11:30:43;;;;;;;;;;;;;;;19.67;32.07;95241.00;10502031;28;2896;-46
2023/12/06 11:35:43;;;;;;;;;;;;;;;19.68;32.27;95245.19;10495668;28;2836;-48
2023/12/06 11:40:53;;;;;;;;;;;;;;;19.69;32.04;95241.50;10487096;28;2902;-49
2023/12/06 11:46:00;;;;;;;;;;;;;;;19.69;32.24;95252.03;10488709;28;4728;-47
2023/12/06 11:51:01;;;;;;;;;;;;;;;19.68;32.12;95258.34;10493924;28;2920;-51
2023/12/06 11:56:02;;;;;;;;;;;;;;;19.69;31.75;95252.03;10487293;28;2952;-50
2023/12/06 12:01:02;;;;;;;;;;;;;;;19.68;32.23;95241.78;10490741;28;3293;-48
2023/12/06 12:06:02;;;;;;;;;;;;;;;19.69;32.01;95248.59;10492096;28;2900;-46
2023/12/06 12:11:03;;;;;;;;;;;;;;;19.66;32.27;95249.94;10491540;28;2848;-45
2023/12/06 12:16:03;;;;;;;;;;;;;;;19.69;32.04;95259.13;10495548;28;2809;-49
2023/12/06 12:21:08;;;;;;;;;;;;;;;19.69;31.86;95259.13;10488274;28;2833;-50
2023/12/06 12:26:16;;;;;;;;;;;;;;;19.68;31.89;95262.84;10485473;28;3255;-53
2023/12/06 12:31:17;;;;;;;;;;;;;;;19.69;31.78;95265.19;10485827;28;3139;-47
2023/12/06 12:36:17;;;;;;;;;;;;;;;19.68;31.84;95266.22;10490517;28;3168;-51
2023/12/06 12:41:18;;;;;;;;;;;;;;;19.68;31.79;95266.22;10485052;28;2851;-47
2023/12/06 12:46:18;;;;;;;;;;;;;;;19.68;32.06;95271.47;10496510;28;4639;-46
2023/12/06 12:51:18;;;;;;;;;;;;;;;19.69;31.48;95264.38;10488303;28;2863;-49
2023/12/06 12:56:19;;;;;;;;;;;;;;;19.68;31.53;95266.22;10489507;28;2814;-49
2023/12/06 13:01:19;;;;;;;;;;;;;;;19.69;31.46;95277.53;10488596;28;2865;-51
2023/12/06 13:06:20;;;;;;;;;;;;;;;19.68;31.82;95276.75;10490413;28;2859;-50
2023/12/06 13:11:20;;;;;;;;;;;;;;;19.70;31.84;95281.75;10492246;28;2861;-52
2023/12/06 13:16:21;;;;;;;;;;;;;;;19.69;31.70;95291.47;10498613;28;2950;-48
2023/12/06 13:21:24;;;;;;;;;;;;;;;19.70;31.60;95285.13;10500852;28;2928;-52
2023/12/06 13:26:24;;;;;;;;;;;;;;;19.71;31.79;95283.28;10498367;28;2891;-46
2023/12/06 13:31:24;;;;;;;;;;;;;;;19.71;31.85;95288.56;10495990;28;2826;-50
2023/12/06 13:36:24;;;;;;;;;;;;;;;19.70;31.89;95298.28;10495551;28;2991;-47
2023/12/06 13:41:24;;;;;;;;;;;;;;;19.69;31.96;95299.34;10508189;28;2900;-50
2023/12/06 13:46:25;;;;;;;;;;;;;;;19.71;31.79;95304.34;10494050;28;2862;-47
2023/12/06 13:51:25;;;;;;;;;;;;;;;19.70;31.67;95306.16;10498558;28;2903;-48
2023/12/06 13:56:25;;;;;;;;;;;;;;;19.70;31.58;95313.31;10493672;28;2823;-50
2023/12/06 14:01:25;;;;;;;;;;;;;;;19.72;31.26;95319.06;10501106;28;2852;-49
2023/12/06 14:06:28;;;;;;;;;;;;;;;19.70;31.69;95319.31;10498301;28;2817;-47
2023/12/06 14:11:28;;;;;;;;;;;;;;;19.71;31.66;95322.75;10504593;28;2996;-49
2023/12/06 14:16:31;;;;;;;;;;;;;;;19.73;31.38;95325.88;10500077;28;2924;-46
2023/12/06 14:21:31;;;;;;;;;;;;;;;19.74;31.41;95322.19;10492968;28;2990;-47
2023/12/06 14:26:32;;;;;;;;;;;;;;;19.72;31.59;95329.59;10499177;28;2874;-49
2023/12/06 14:31:32;;;;;;;;;;;;;;;19.72;31.58;95338.22;10499613;28;2876;-45
2023/12/06 14:36:33;;;;;;;;;;;;;;;19.73;31.30;95339.03;10495258;28;3312;-46
2023/12/06 14:41:34;;;;;;;;;;;;;;;19.72;31.56;95346.13;10496036;28;2868;-49
2023/12/06 14:46:34;;;;;;;;;;;;;;;19.71;31.39;95356.91;10497867;28;4684;-46
2023/12/06 14:51:34;;;;;;;;;;;;;;;19.73;31.44;95360.06;10502206;28;2918;-55
2023/12/06 14:56:35;;;;;;;;;;;;;;;19.74;31.27;95367.66;10498071;28;2906;-49
2023/12/06 15:01:35;;;;;;;;;;;;;;;19.72;31.64;95369.03;10497425;28;2792;-45
2023/12/06 15:06:36;;;;;;;;;;;;;;;19.73;31.50;95383.72;10490586;28;2861;-46
2023/12/06 15:11:36;;;;;;;;;;;;;;;19.73;31.45;95381.88;10500617;28;2889;-49
2023/12/06 15:16:36;;;;;;;;;;;;;;;19.72;31.58;95390.81;10503938;28;2883;-46
2023/12/06 15:21:37;;;;;;;;;;;;;;;19.74;31.34;95382.69;10501002;28;2923;-48
2023/12/06 15:26:37;;;;;;;;;;;;;;;19.75;31.45;95394.75;10496413;28;2917;-46
2023/12/06 15:31:37;;;;;;;;;;;;;;;19.74;31.27;95395.84;10490601;28;2810;-50
2023/12/06 15:36:37;;;;;;;;;;;;;;;19.74;31.32;95399.22;10494655;28;2896;-48
2023/12/06 15:41:38;;;;;;;;;;;;;;;19.75;31.34;95394.75;10498053;28;2804;-50
2023/12/06 15:46:38;;;;;;;;;;;;;;;19.75;31.50;95410.53;10490364;28;4609;-47
2023/12/06 15:51:39;;;;;;;;;;;;;;;19.73;31.53;95413.44;10498493;28;2820;-45
2023/12/06 15:56:39;;;;;;;;;;;;;;;19.74;31.58;95419.50;10491267;28;2876;-46
2023/12/06 16:01:39;;;;;;;;;;;;;;;19.75;31.11;95423.69;10490838;28;2843;-49
2023/12/06 16:06:40;;;;;;;;;;;;;;;19.75;31.22;95431.56;10489796;28;2847;-49
2023/12/06 16:11:40;;;;;;;;;;;;;;;19.73;31.42;95441.59;10492507;28;2792;-45
2023/12/06 16:16:41;;;;;;;;;;;;;;;19.73;31.04;95447.63;10486833;28;2874;-50
2023/12/06 16:21:41;;;;;;;;;;;;;;;19.73;31.31;95449.47;10487289;28;2811;-48
2023/12/06 16:26:41;;;;;;;;;;;;;;;19.76;31.24;95456.81;10494481;28;2883;-47
2023/12/06 16:31:42;;;;;;;;;;;;;;;19.74;31.30;95475.50;10492483;28;2861;-48
2023/12/06 16:36:42;;;;;;;;;;;;;;;19.72;31.34;95482.09;10487925;28;2916;-47
2023/12/06 16:41:43;;;;;;;;;;;;;;;19.72;31.10;95490.75;10522213;27;2868;-49
2023/12/06 16:46:43;;;;;;;;;;;;;;;19.71;31.28;95499.72;10494914;28;4676;-49
2023/12/06 16:51:43;;;;;;;;;;;;;;;19.72;31.37;95505.78;10498220;28;2825;-50
2023/12/06 16:56:44;;;;;;;;;;;;;;;19.73;30.89;95518.63;10496499;28;2923;-48
2023/12/06 17:01:44;;;;;;;;;;;;;;;19.72;31.09;95532.06;10491482;28;2875;-47
2023/12/06 17:06:44;;;;;;;;;;;;;;;19.73;31.15;95538.88;10498486;28;2856;-50
2023/12/06 17:11:44;;;;;;;;;;;;;;;19.73;31.16;95542.31;10538925;27;2841;-46
2023/12/06 17:16:45;;;;;;;;;;;;;;;19.73;30.92;95552.03;10501452;28;2849;-48
2023/12/06 17:21:45;;;;;;;;;;;;;;;19.73;31.04;95552.03;10502164;28;2880;-45
2023/12/06 17:26:45;;;;;;;;;;;;;;;19.72;31.03;95556.50;10503002;28;2861;-46
2023/12/06 17:31:45;;;;;;;;;;;;;;;19.75;30.95;95563.88;10500550;28;3488;-46
2023/12/06 17:36:46;;;;;;;;;;;;;;;19.73;30.91;95568.59;10523892;27;3198;-47
2023/12/06 17:41:46;;;;;;;;;;;;;;;19.74;31.26;95572.03;10498283;28;2829;-50
2023/12/06 17:46:46;;;;;;;;;;;;;;;19.77;31.02;95579.34;10494589;28;4448;-50
2023/12/06 17:51:47;;;;;;;;;;;;;;;19.76;31.28;95591.75;10498523;28;2907;-49
2023/12/06 17:56:49;;;;;;;;;;;;;;;19.76;31.26;95596.22;10500928;28;2855;-49
2023/12/06 18:01:52;;;;;;;;;;;;;;;19.78;31.81;95594.09;10497825;28;3163;-50
2023/12/06 18:06:52;;;;;;;;;;;;;;;19.76;31.46;95604.09;10493696;28;2866;-53
2023/12/06 18:11:53;;;;;;;;;;;;;;;19.78;31.25;95608.03;10500041;28;2947;-45
2023/12/06 18:16:53;;;;;;;;;;;;;;;19.76;31.33;95618.03;10500505;28;2908;-52
2023/12/06 18:21:56;;;;;;;;;;;;;;;19.86;31.99;95619.81;10494539;28;3363;-47
2023/12/06 18:26:57;;;;;;;;;;;;;;;19.94;31.64;95624.50;10492250;28;2853;-46
2023/12/06 18:31:57;;;;;;;;;;;;;;;20.02;31.55;95635.25;10496443;28;2937;-51
2023/12/06 18:36:57;;;;;;;;;;;;;;;20.05;31.48;95641.81;10493764;28;2935;-46
2023/12/06 18:41:58;;;;;;;;;;;;;;;20.13;31.12;95646.50;10496649;28;2891;-50
2023/12/06 18:46:58;;;;;;;;;;;;;;;20.15;31.06;95652.28;10498568;28;4796;-47
2023/12/06 18:51:58;;;;;;;;;;;;;;;20.21;30.81;95648.59;10502056;28;2926;-46
2023/12/06 18:56:59;;;;;;;;;;;;;;;20.29;31.13;95648.00;10502692;28;2859;-46
2023/12/06 19:01:59;;;;;;;;;;;;;;;20.33;30.47;95654.28;10492684;28;2853;-45
2023/12/06 19:07:01;;;;;;;;;;;;;;;20.33;30.77;95656.94;10497521;28;2855;-45
2023/12/06 19:12:02;;;;;;;;;;;;;;;20.36;30.45;95642.44;10493449;28;2932;-46
2023/12/06 19:17:02;;;;;;;;;;;;;;;20.38;30.98;95645.59;10489000;28;2927;-45
2023/12/06 19:22:04;;;;;;;;;;;;;;;20.47;29.96;95649.97;10495125;28;2820;-45
2023/12/06 19:27:04;;;;;;;;;;;;;;;20.45;30.08;95661.84;10489120;28;2885;-45
2023/12/06 19:32:04;;;;;;;;;;;;;;;20.46;30.36;95668.69;10494682;28;2821;-51
2023/12/06 19:37:04;;;;;;;;;;;;;;;20.47;30.23;95671.03;10494445;28;2858;-46
2023/12/06 19:42:07;;;;;;;;;;;;;;;20.50;30.32;95669.72;10499558;28;2871;-49
2023/12/06 19:47:07;;;;;;;;;;;;;;;20.51;30.05;95681.81;10501521;28;4537;-51
2023/12/06 19:52:08;;;;;;;;;;;;;;;20.54;30.71;95671.53;10496633;28;2892;-44
2023/12/06 19:57:09;;;;;;;;;;;;;;;20.54;30.57;95682.06;10499078;28;2924;-48
2023/12/06 20:02:09;;;;;;;;;;;;;;;20.60;30.45;95680.97;10489207;28;2833;-46
2023/12/06 20:07:09;;;;;;;;;;;;;;;20.63;30.38;95692.81;10496879;28;2890;-51
2023/12/06 20:12:10;;;;;;;;;;;;;;;20.61;30.15;95687.78;10498571;28;2841;-49
2023/12/06 20:17:10;;;;;;;;;;;;;;;20.60;30.10;95693.34;10495423;28;2876;-47
2023/12/06 20:22:11;;;;;;;;;;;;;;;20.60;29.69;95686.22;10501804;28;2932;-46
2023/12/06 20:27:12;;;;;;;;;;;;;;;20.55;30.03;95712.59;10496669;28;2800;-46
2023/12/06 20:32:12;;;;;;;;;;;;;;;20.48;30.05;95714.75;10504856;28;2829;-48
2023/12/06 20:37:13;;;;;;;;;;;;;;;20.40;30.26;95717.97;10505317;28;2856;-49
2023/12/06 20:42:13;;;;;;;;;;;;;;;20.28;30.67;95714.84;10507824;28;2905;-45
2023/12/06 20:47:13;;;;;;;;;;;;;;;20.23;30.81;95722.81;10509307;28;2920;-47
2023/12/06 20:52:14;;;;;;;;;;;;;;;20.20;30.82;95731.22;10507431;28;2979;-44
2023/12/06 20:57:14;;;;;;;;;;;;;;;20.13;31.37;95728.09;10507424;28;2835;-45
2023/12/06 21:02:14;;;;;;;;;;;;;;;20.08;31.17;95733.38;10510850;28;3019;-47
2023/12/06 21:07:15;;;;;;;;;;;;;;;20.10;30.81;95739.13;10504889;28;2864;-47
2023/12/06 21:12:15;;;;;;;;;;;;;;;19.99;31.80;95740.25;10508439;28;3199;-47
2023/12/06 21:17:15;;;;;;;;;;;;;;;20.00;31.30;95749.72;10500234;28;2863;-46
2023/12/06 21:22:15;;;;;;;;;;;;;;;19.96;31.27;95759.19;10503101;28;2809;-48
2023/12/06 21:27:16;;;;;;;;;;;;;;;20.00;31.94;95765.50;10503783;28;2964;-45
2023/12/06 21:32:16;;;;;;;;;;;;;;;19.99;33.04;95759.44;10502661;28;2895;-47
2023/12/06 21:37:17;;;;;;;;;;;;;;;19.99;33.04;95764.72;10499979;28;2923;-45
2023/12/06 21:42:17;;;;;;;;;;;;;;;20.00;33.78;95765.50;10498910;28;2868;-48
2023/12/06 21:47:17;;;;;;;;;;;;;;;19.97;33.03;95764.19;10502749;28;4660;-45
2023/12/06 21:52:17;;;;;;;;;;;;;;;19.96;33.46;95769.72;10516187;28;2933;-45
2023/12/06 21:57:18;;;;;;;;;;;;;;;19.96;33.43;95770.53;10494465;28;2844;-45
2023/12/06 22:02:18;;;;;;;;;;;;;;;19.98;32.87;95776.31;10499366;28;2852;-44
2023/12/06 22:07:18;;;;;;;;;;;;;;;19.94;33.44;95777.91;10503722;28;2824;-46
2023/12/06 22:12:18;;;;;;;;;;;;;;;19.93;33.67;95780.78;10506042;28;2887;-45
2023/12/06 22:17:19;;;;;;;;;;;;;;;19.94;33.69;95777.91;10500895;28;2999;-46
2023/12/06 22:22:19;;;;;;;;;;;;;;;19.95;33.86;95773.41;10503857;28;2849;-48
2023/12/06 22:27:19;;;;;;;;;;;;;;;19.94;33.88;95785.00;10503419;28;2926;-47
2023/12/06 22:32:20;;;;;;;;;;;;;;;19.92;33.91;95795.00;10499962;28;2791;-45
2023/12/06 22:37:20;;;;;;;;;;;;;;;19.93;33.52;95788.66;10522799;28;2804;-46
2023/12/06 22:42:20;;;;;;;;;;;;;;;19.90;33.97;95797.09;10499464;28;2863;-46
2023/12/06 22:47:23;;;;;;;;;;;;;;;19.93;33.37;95796.56;10496631;28;4812;-46
2023/12/06 22:52:23;;;;;;;;;;;;;;;19.93;33.37;95796.56;10501732;28;2876;-53
2023/12/06 22:57:23;;;;;;;;;;;;;;;19.88;33.90;95799.22;10495157;28;2958;-48
2023/12/06 23:02:24;;;;;;;;;;;;;;;19.90;33.49;95805.78;10500374;28;2819;-46
2023/12/06 23:07:24;;;;;;;;;;;;;;;19.87;33.73;95803.69;10497250;28;2870;-45
2023/12/06 23:12:24;;;;;;;;;;;;;;;19.87;33.62;95801.06;10488922;28;2805;-47
2023/12/06 23:17:24;;;;;;;;;;;;;;;19.86;32.90;95801.31;10493197;28;2888;-48
2023/12/06 23:22:25;;;;;;;;;;;;;;;19.82;32.88;95801.09;10500862;28;2905;-49
2023/12/06 23:27:25;;;;;;;;;;;;;;;19.82;32.67;95802.91;10496472;28;3075;-45
2023/12/06 23:32:25;;;;;;;;;;;;;;;19.83;32.72;95804.47;10495531;28;2874;-48
2023/12/06 23:37:25;;;;;;;;;;;;;;;19.81;32.60;95796.06;10505306;28;2772;-45
2023/12/06 23:42:27;;;;;;;;;;;;;;;19.80;32.65;95812.91;10490619;28;2882;-48
2023/12/06 23:47:27;;;;;;;;;;;;;;;19.81;32.44;95810.00;10497380;28;4684;-50
2023/12/06 23:52:27;;;;;;;;;;;;;;;19.79;32.71;95811.34;10491809;28;2928;-48
2023/12/06 23:57:28;;;;;;;;;;;;;;;19.74;32.69;95806.88;10498255;28;2869;-47
